Atlanta, Idaho
Current Conditions -  °F | °C
As of 7:47 PM on Friday 28 Nov 2014 (Local Time) from KSUN Reporting Station
Overcast Overcast  
Wind Chill: 50°   Ceiling: 10000
Heat Index: 50°   Visibility: 10mi
Dew Point: 21°   Wind: 7mph
Humidity: 32%   Direction: 110°ESE
Pressure: 29.7"   Gusts: NA
Location:  43.8°N, 115.13°W
Report Text: KSUN 290247Z 11006KT 10SM OVC100 10/M06 A2970
Loading
Personal Weather Stations






























Interactive Weather Map New forecast layout! Learn more

10-Day Weather Forecast

Advertisements
Track Severe Weather on mobile